sensor_id;sensor_type;location;lat;lon;timestamp;temperature;humidity
24035;DHT22;12242;50.952;4.678;2022-12-18T00:00:04;-3.90;99.90
24035;DHT22;12242;50.952;4.678;2022-12-18T00:02:34;-3.90;99.90
24035;DHT22;12242;50.952;4.678;2022-12-18T00:05:01;-3.90;99.90
24035;DHT22;12242;50.952;4.678;2022-12-18T00:07:29;-4.20;99.90
24035;DHT22;12242;50.952;4.678;2022-12-18T00:09:56;-4.30;99.90
24035;DHT22;12242;50.952;4.678;2022-12-18T00:12:23;-4.30;99.90
24035;DHT22;12242;50.952;4.678;2022-12-18T00:14:50;-4.20;99.90
24035;DHT22;12242;50.952;4.678;2022-12-18T00:17:20;-4.10;99.90
24035;DHT22;12242;50.952;4.678;2022-12-18T00:19:47;-4.20;99.90
24035;DHT22;12242;50.952;4.678;2022-12-18T00:22:15;-4.10;99.90
24035;DHT22;12242;50.952;4.678;2022-12-18T00:24:42;-4.30;99.90
24035;DHT22;12242;50.952;4.678;2022-12-18T00:27:09;-4.60;99.90
24035;DHT22;12242;50.952;4.678;2022-12-18T00:29:36;-4.80;99.90
24035;DHT22;12242;50.952;4.678;2022-12-18T00:32:04;-4.90;99.90
24035;DHT22;12242;50.952;4.678;2022-12-18T00:34:33;-5.00;99.90
24035;DHT22;12242;50.952;4.678;2022-12-18T00:37:00;-4.90;99.90
24035;DHT22;12242;50.952;4.678;2022-12-18T00:39:28;-4.50;99.90
24035;DHT22;12242;50.952;4.678;2022-12-18T00:41:55;-4.30;99.90
24035;DHT22;12242;50.952;4.678;2022-12-18T00:44:41;-4.10;99.90
24035;DHT22;12242;50.952;4.678;2022-12-18T00:47:08;-4.00;99.90
24035;DHT22;12242;50.952;4.678;2022-12-18T00:49:35;-3.80;99.90
24035;DHT22;12242;50.952;4.678;2022-12-18T00:52:05;-3.70;99.90
24035;DHT22;12242;50.952;4.678;2022-12-18T00:54:32;-3.50;99.90
24035;DHT22;12242;50.952;4.678;2022-12-18T00:57:02;-3.40;99.90
24035;DHT22;12242;50.952;4.678;2022-12-18T00:59:30;-3.30;99.90
24035;DHT22;12242;50.952;4.678;2022-12-18T01:01:57;-3.10;99.90
24035;DHT22;12242;50.952;4.678;2022-12-18T01:04:25;-3.10;99.90
24035;DHT22;12242;50.952;4.678;2022-12-18T01:06:52;-3.10;99.90
24035;DHT22;12242;50.952;4.678;2022-12-18T01:09:19;-3.10;99.90
24035;DHT22;12242;50.952;4.678;2022-12-18T01:11:49;-3.10;99.90
24035;DHT22;12242;50.952;4.678;2022-12-18T01:14:21;-3.50;99.90
24035;DHT22;12242;50.952;4.678;2022-12-18T01:16:50;-4.00;99.90
24035;DHT22;12242;50.952;4.678;2022-12-18T01:19:20;-4.20;99.90
24035;DHT22;12242;50.952;4.678;2022-12-18T01:21:53;-4.10;99.90
24035;DHT22;12242;50.952;4.678;2022-12-18T01:24:22;-3.90;99.90
24035;DHT22;12242;50.952;4.678;2022-12-18T01:26:49;-4.10;99.90
24035;DHT22;12242;50.952;4.678;2022-12-18T01:29:17;-4.10;99.90
24035;DHT22;12242;50.952;4.678;2022-12-18T01:31:44;-4.40;99.90
24035;DHT22;12242;50.952;4.678;2022-12-18T01:34:14;-4.80;99.90
24035;DHT22;12242;50.952;4.678;2022-12-18T01:36:41;-4.90;99.90
24035;DHT22;12242;50.952;4.678;2022-12-18T01:39:13;-4.70;99.90
24035;DHT22;12242;50.952;4.678;2022-12-18T01:41:41;-4.40;99.90
24035;DHT22;12242;50.952;4.678;2022-12-18T01:47:58;-4.10;99.90
24035;DHT22;12242;50.952;4.678;2022-12-18T01:50:39;-3.90;99.90
24035;DHT22;12242;50.952;4.678;2022-12-18T01:53:13;-3.90;99.90
24035;DHT22;12242;50.952;4.678;2022-12-18T01:55:53;-4.10;99.90
24035;DHT22;12242;50.952;4.678;2022-12-18T02:00:57;-4.70;99.90
24035;DHT22;12242;50.952;4.678;2022-12-18T02:03:24;-4.70;99.90
24035;DHT22;12242;50.952;4.678;2022-12-18T02:05:55;-4.60;99.90
24035;DHT22;12242;50.952;4.678;2022-12-18T02:14:11;-4.70;99.90
24035;DHT22;12242;50.952;4.678;2022-12-18T02:17:01;-4.80;99.90
24035;DHT22;12242;50.952;4.678;2022-12-18T02:28:13;-5.00;99.90
24035;DHT22;12242;50.952;4.678;2022-12-18T02:30:45;-5.10;99.90
24035;DHT22;12242;50.952;4.678;2022-12-18T02:33:16;-5.20;99.90
24035;DHT22;12242;50.952;4.678;2022-12-18T02:35:47;-5.20;99.90
24035;DHT22;12242;50.952;4.678;2022-12-18T02:38:15;-5.00;99.90
24035;DHT22;12242;50.952;4.678;2022-12-18T02:40:44;-4.70;99.90
24035;DHT22;12242;50.952;4.678;2022-12-18T02:43:15;-4.50;99.90
24035;DHT22;12242;50.952;4.678;2022-12-18T02:45:54;-4.40;99.90
24035;DHT22;12242;50.952;4.678;2022-12-18T02:48:29;-4.30;99.90
24035;DHT22;12242;50.952;4.678;2022-12-18T02:51:22;-4.30;99.90
24035;DHT22;12242;50.952;4.678;2022-12-18T02:54:21;-4.60;99.90
24035;DHT22;12242;50.952;4.678;2022-12-18T02:56:55;-4.70;99.90
24035;DHT22;12242;50.952;4.678;2022-12-18T02:59:34;-4.60;99.90
24035;DHT22;12242;50.952;4.678;2022-12-18T03:04:57;-4.90;99.90
24035;DHT22;12242;50.952;4.678;2022-12-18T03:07:41;-4.90;99.90
24035;DHT22;12242;50.952;4.678;2022-12-18T03:10:13;-4.90;99.90
24035;DHT22;12242;50.952;4.678;2022-12-18T03:12:51;-5.20;99.90
24035;DHT22;12242;50.952;4.678;2022-12-18T03:15:26;-5.40;99.90
24035;DHT22;12242;50.952;4.678;2022-12-18T03:17:59;-5.30;99.90
24035;DHT22;12242;50.952;4.678;2022-12-18T03:20:31;-5.40;99.90
24035;DHT22;12242;50.952;4.678;2022-12-18T03:23:06;-5.60;99.90
24035;DHT22;12242;50.952;4.678;2022-12-18T03:25:39;-5.60;99.90
24035;DHT22;12242;50.952;4.678;2022-12-18T03:28:13;-5.90;99.90
24035;DHT22;12242;50.952;4.678;2022-12-18T03:30:44;-6.10;99.90
24035;DHT22;12242;50.952;4.678;2022-12-18T03:36:11;-6.00;99.90
24035;DHT22;12242;50.952;4.678;2022-12-18T03:38:38;-6.00;99.90
24035;DHT22;12242;50.952;4.678;2022-12-18T03:47:16;-5.40;99.90
24035;DHT22;12242;50.952;4.678;2022-12-18T03:49:58;-5.30;99.90
24035;DHT22;12242;50.952;4.678;2022-12-18T03:52:38;-5.00;99.90
24035;DHT22;12242;50.952;4.678;2022-12-18T03:55:09;-4.80;99.90
24035;DHT22;12242;50.952;4.678;2022-12-18T03:57:37;-4.70;99.90
24035;DHT22;12242;50.952;4.678;2022-12-18T04:00:11;-4.80;99.90
24035;DHT22;12242;50.952;4.678;2022-12-18T04:02:46;-4.90;99.90
24035;DHT22;12242;50.952;4.678;2022-12-18T04:05:15;-5.10;99.90
24035;DHT22;12242;50.952;4.678;2022-12-18T04:07:47;-5.40;99.90
24035;DHT22;12242;50.952;4.678;2022-12-18T04:10:20;-5.60;99.90
24035;DHT22;12242;50.952;4.678;2022-12-18T04:12:48;-6.10;99.90
24035;DHT22;12242;50.952;4.678;2022-12-18T04:15:15;-6.60;99.90
24035;DHT22;12242;50.952;4.678;2022-12-18T04:17:49;-6.80;99.90
24035;DHT22;12242;50.952;4.678;2022-12-18T04:20:17;-6.50;99.90
24035;DHT22;12242;50.952;4.678;2022-12-18T04:22:45;-6.10;99.90
24035;DHT22;12242;50.952;4.678;2022-12-18T04:25:14;-5.80;99.90
24035;DHT22;12242;50.952;4.678;2022-12-18T04:27:44;-5.70;99.90
24035;DHT22;12242;50.952;4.678;2022-12-18T04:30:14;-5.70;99.90
24035;DHT22;12242;50.952;4.678;2022-12-18T04:32:41;-6.10;99.90
24035;DHT22;12242;50.952;4.678;2022-12-18T04:35:16;-6.00;99.90
24035;DHT22;12242;50.952;4.678;2022-12-18T04:37:43;-5.90;99.90
24035;DHT22;12242;50.952;4.678;2022-12-18T04:40:11;-5.60;99.90
24035;DHT22;12242;50.952;4.678;2022-12-18T04:42:39;-5.40;99.90
24035;DHT22;12242;50.952;4.678;2022-12-18T04:45:10;-5.20;99.90
24035;DHT22;12242;50.952;4.678;2022-12-18T04:47:37;-5.00;99.90
24035;DHT22;12242;50.952;4.678;2022-12-18T04:50:05;-4.80;99.90
24035;DHT22;12242;50.952;4.678;2022-12-18T04:52:32;-4.70;99.90
24035;DHT22;12242;50.952;4.678;2022-12-18T04:55:02;-4.70;99.90
24035;DHT22;12242;50.952;4.678;2022-12-18T04:57:32;-4.80;99.90
24035;DHT22;12242;50.952;4.678;2022-12-18T05:00:02;-4.80;99.90
24035;DHT22;12242;50.952;4.678;2022-12-18T05:02:30;-4.80;99.90
24035;DHT22;12242;50.952;4.678;2022-12-18T05:04:57;-4.80;99.90
24035;DHT22;12242;50.952;4.678;2022-12-18T05:07:24;-4.80;99.90
24035;DHT22;12242;50.952;4.678;2022-12-18T05:09:52;-4.90;99.90
24035;DHT22;12242;50.952;4.678;2022-12-18T05:12:19;-5.00;99.90
24035;DHT22;12242;50.952;4.678;2022-12-18T05:14:48;-5.10;99.90
24035;DHT22;12242;50.952;4.678;2022-12-18T05:17:16;-5.40;99.90
24035;DHT22;12242;50.952;4.678;2022-12-18T05:19:43;-5.40;99.90
24035;DHT22;12242;50.952;4.678;2022-12-18T05:22:10;-5.30;99.90
24035;DHT22;12242;50.952;4.678;2022-12-18T05:24:38;-5.10;99.90
24035;DHT22;12242;50.952;4.678;2022-12-18T05:27:05;-5.30;99.90
24035;DHT22;12242;50.952;4.678;2022-12-18T05:29:33;-5.30;99.90
24035;DHT22;12242;50.952;4.678;2022-12-18T05:32:00;-5.30;99.90
24035;DHT22;12242;50.952;4.678;2022-12-18T05:34:27;-5.20;99.90
24035;DHT22;12242;50.952;4.678;2022-12-18T05:36:55;-5.40;99.90
24035;DHT22;12242;50.952;4.678;2022-12-18T05:39:22;-5.30;99.90
24035;DHT22;12242;50.952;4.678;2022-12-18T05:41:49;-5.50;99.90
24035;DHT22;12242;50.952;4.678;2022-12-18T05:44:19;-5.70;99.90
24035;DHT22;12242;50.952;4.678;2022-12-18T05:46:48;-6.00;99.90
24035;DHT22;12242;50.952;4.678;2022-12-18T05:49:18;-5.90;99.90
24035;DHT22;12242;50.952;4.678;2022-12-18T05:51:46;-6.00;99.90
24035;DHT22;12242;50.952;4.678;2022-12-18T05:54:15;-5.90;99.90
24035;DHT22;12242;50.952;4.678;2022-12-18T05:56:42;-5.70;99.90
24035;DHT22;12242;50.952;4.678;2022-12-18T05:59:15;-5.60;99.90
24035;DHT22;12242;50.952;4.678;2022-12-18T06:01:42;-5.80;99.90
24035;DHT22;12242;50.952;4.678;2022-12-18T06:04:12;-6.20;99.90
24035;DHT22;12242;50.952;4.678;2022-12-18T06:06:39;-6.20;99.90
24035;DHT22;12242;50.952;4.678;2022-12-18T06:09:09;-6.20;99.90
24035;DHT22;12242;50.952;4.678;2022-12-18T06:11:39;-6.30;99.90
24035;DHT22;12242;50.952;4.678;2022-12-18T06:14:07;-6.30;99.90
24035;DHT22;12242;50.952;4.678;2022-12-18T06:16:34;-6.10;99.90
24035;DHT22;12242;50.952;4.678;2022-12-18T06:19:05;-5.90;99.90
24035;DHT22;12242;50.952;4.678;2022-12-18T06:21:34;-5.90;99.90
24035;DHT22;12242;50.952;4.678;2022-12-18T06:24:01;-5.80;99.90
24035;DHT22;12242;50.952;4.678;2022-12-18T06:26:28;-5.60;99.90
24035;DHT22;12242;50.952;4.678;2022-12-18T06:28:58;-5.40;99.90
24035;DHT22;12242;50.952;4.678;2022-12-18T06:31:28;-5.40;99.90
24035;DHT22;12242;50.952;4.678;2022-12-18T06:33:58;-5.30;99.90
24035;DHT22;12242;50.952;4.678;2022-12-18T06:36:29;-5.70;99.90
24035;DHT22;12242;50.952;4.678;2022-12-18T06:38:56;-6.30;99.90
24035;DHT22;12242;50.952;4.678;2022-12-18T06:41:24;-6.40;99.90
24035;DHT22;12242;50.952;4.678;2022-12-18T06:43:51;-6.30;99.90
24035;DHT22;12242;50.952;4.678;2022-12-18T06:46:25;-5.90;99.90
24035;DHT22;12242;50.952;4.678;2022-12-18T06:48:52;-5.70;99.90
24035;DHT22;12242;50.952;4.678;2022-12-18T06:51:22;-5.40;99.90
24035;DHT22;12242;50.952;4.678;2022-12-18T06:53:49;-5.60;99.90
24035;DHT22;12242;50.952;4.678;2022-12-18T06:56:17;-5.60;99.90
24035;DHT22;12242;50.952;4.678;2022-12-18T06:58:44;-5.50;99.90
24035;DHT22;12242;50.952;4.678;2022-12-18T07:01:14;-5.30;99.90
24035;DHT22;12242;50.952;4.678;2022-12-18T07:03:42;-5.10;99.90
24035;DHT22;12242;50.952;4.678;2022-12-18T07:06:20;-5.00;99.90
24035;DHT22;12242;50.952;4.678;2022-12-18T07:08:52;-4.80;99.90
24035;DHT22;12242;50.952;4.678;2022-12-18T07:11:21;-4.90;99.90
24035;DHT22;12242;50.952;4.678;2022-12-18T07:13:48;-5.20;99.90
24035;DHT22;12242;50.952;4.678;2022-12-18T07:16:20;-5.80;99.90
24035;DHT22;12242;50.952;4.678;2022-12-18T07:18:54;-5.90;99.90
24035;DHT22;12242;50.952;4.678;2022-12-18T07:21:25;-5.70;99.90
24035;DHT22;12242;50.952;4.678;2022-12-18T07:23:52;-5.50;99.90
24035;DHT22;12242;50.952;4.678;2022-12-18T07:26:22;-5.50;99.90
24035;DHT22;12242;50.952;4.678;2022-12-18T07:28:57;-5.50;99.90
24035;DHT22;12242;50.952;4.678;2022-12-18T07:31:25;-5.50;99.90
24035;DHT22;12242;50.952;4.678;2022-12-18T07:33:55;-5.60;99.90
24035;DHT22;12242;50.952;4.678;2022-12-18T07:36:23;-5.70;99.90
24035;DHT22;12242;50.952;4.678;2022-12-18T07:38:50;-5.40;99.90
24035;DHT22;12242;50.952;4.678;2022-12-18T07:41:19;-5.10;99.90
24035;DHT22;12242;50.952;4.678;2022-12-18T07:43:47;-4.90;99.90
24035;DHT22;12242;50.952;4.678;2022-12-18T07:46:15;-4.80;99.90
24035;DHT22;12242;50.952;4.678;2022-12-18T07:48:43;-5.00;99.90
24035;DHT22;12242;50.952;4.678;2022-12-18T07:51:15;-5.50;99.90
24035;DHT22;12242;50.952;4.678;2022-12-18T07:53:43;-5.80;99.90
24035;DHT22;12242;50.952;4.678;2022-12-18T07:56:12;-5.90;99.90
24035;DHT22;12242;50.952;4.678;2022-12-18T07:59:00;-5.90;99.90
24035;DHT22;12242;50.952;4.678;2022-12-18T08:01:27;-5.80;99.90
24035;DHT22;12242;50.952;4.678;2022-12-18T08:03:57;-5.50;99.90
24035;DHT22;12242;50.952;4.678;2022-12-18T08:06:27;-5.30;99.90
24035;DHT22;12242;50.952;4.678;2022-12-18T08:08:55;-5.10;99.90
24035;DHT22;12242;50.952;4.678;2022-12-18T08:11:25;-4.90;99.90
24035;DHT22;12242;50.952;4.678;2022-12-18T08:13:53;-4.70;99.90
24035;DHT22;12242;50.952;4.678;2022-12-18T08:16:21;-4.60;99.90
24035;DHT22;12242;50.952;4.678;2022-12-18T08:18:48;-4.30;99.90
24035;DHT22;12242;50.952;4.678;2022-12-18T08:21:21;-4.10;99.90
24035;DHT22;12242;50.952;4.678;2022-12-18T08:23:50;-4.00;99.90
24035;DHT22;12242;50.952;4.678;2022-12-18T08:26:19;-3.80;99.90
24035;DHT22;12242;50.952;4.678;2022-12-18T08:28:49;-3.50;99.90
24035;DHT22;12242;50.952;4.678;2022-12-18T08:31:18;-3.30;99.90
24035;DHT22;12242;50.952;4.678;2022-12-18T08:33:48;-3.00;99.90
24035;DHT22;12242;50.952;4.678;2022-12-18T08:36:16;-2.90;99.90
24035;DHT22;12242;50.952;4.678;2022-12-18T08:38:44;-2.80;99.90
24035;DHT22;12242;50.952;4.678;2022-12-18T08:41:15;-2.70;99.90
24035;DHT22;12242;50.952;4.678;2022-12-18T08:43:43;-2.50;99.90
24035;DHT22;12242;50.952;4.678;2022-12-18T08:46:34;-2.30;99.90
24035;DHT22;12242;50.952;4.678;2022-12-18T08:49:05;-2.20;99.90
24035;DHT22;12242;50.952;4.678;2022-12-18T08:51:34;-2.10;99.90
24035;DHT22;12242;50.952;4.678;2022-12-18T08:54:02;-2.10;99.90
24035;DHT22;12242;50.952;4.678;2022-12-18T08:56:31;-1.80;99.90
24035;DHT22;12242;50.952;4.678;2022-12-18T08:59:00;-1.90;99.90
24035;DHT22;12242;50.952;4.678;2022-12-18T09:01:27;-1.90;99.90
24035;DHT22;12242;50.952;4.678;2022-12-18T09:03:55;-1.80;99.90
24035;DHT22;12242;50.952;4.678;2022-12-18T09:06:23;-1.60;99.90
24035;DHT22;12242;50.952;4.678;2022-12-18T09:08:51;-1.10;99.90
24035;DHT22;12242;50.952;4.678;2022-12-18T09:11:26;-0.90;99.90
24035;DHT22;12242;50.952;4.678;2022-12-18T09:13:56;-0.60;99.90
24035;DHT22;12242;50.952;4.678;2022-12-18T09:16:27;-0.20;99.90
24035;DHT22;12242;50.952;4.678;2022-12-18T09:19:02;0.00;99.90
24035;DHT22;12242;50.952;4.678;2022-12-18T09:21:35;0.00;99.90
24035;DHT22;12242;50.952;4.678;2022-12-18T09:24:14;0.40;99.90
24035;DHT22;12242;50.952;4.678;2022-12-18T09:26:42;0.80;99.90
24035;DHT22;12242;50.952;4.678;2022-12-18T09:29:16;1.00;99.90
24035;DHT22;12242;50.952;4.678;2022-12-18T09:31:47;0.80;99.90
24035;DHT22;12242;50.952;4.678;2022-12-18T09:34:17;1.10;99.90
24035;DHT22;12242;50.952;4.678;2022-12-18T09:36:49;1.10;99.90
24035;DHT22;12242;50.952;4.678;2022-12-18T09:39:21;0.60;99.90
24035;DHT22;12242;50.952;4.678;2022-12-18T09:41:54;0.40;99.90
24035;DHT22;12242;50.952;4.678;2022-12-18T09:47:16;0.00;99.90
24035;DHT22;12242;50.952;4.678;2022-12-18T09:49:45;0.20;99.90
24035;DHT22;12242;50.952;4.678;2022-12-18T09:55:03;-0.10;99.90
24035;DHT22;12242;50.952;4.678;2022-12-18T09:57:35;-0.20;99.90
24035;DHT22;12242;50.952;4.678;2022-12-18T10:00:21;-0.30;99.90
24035;DHT22;12242;50.952;4.678;2022-12-18T10:02:51;-0.30;99.90
24035;DHT22;12242;50.952;4.678;2022-12-18T10:08:33;-0.40;99.90
24035;DHT22;12242;50.952;4.678;2022-12-18T10:11:40;-0.30;99.90
24035;DHT22;12242;50.952;4.678;2022-12-18T10:14:34;0.20;99.90
24035;DHT22;12242;50.952;4.678;2022-12-18T10:17:35;0.30;99.90
24035;DHT22;12242;50.952;4.678;2022-12-18T10:20:37;0.70;99.90
24035;DHT22;12242;50.952;4.678;2022-12-18T10:23:41;1.00;99.90
24035;DHT22;12242;50.952;4.678;2022-12-18T10:26:17;1.30;99.90
24035;DHT22;12242;50.952;4.678;2022-12-18T10:28:47;1.50;99.90
24035;DHT22;12242;50.952;4.678;2022-12-18T10:31:23;1.60;99.90
24035;DHT22;12242;50.952;4.678;2022-12-18T10:33:53;1.60;99.90
24035;DHT22;12242;50.952;4.678;2022-12-18T10:36:23;1.50;99.90
24035;DHT22;12242;50.952;4.678;2022-12-18T10:38:51;1.50;99.90
24035;DHT22;12242;50.952;4.678;2022-12-18T10:46:43;1.50;99.90
24035;DHT22;12242;50.952;4.678;2022-12-18T10:49:42;1.60;99.90
24035;DHT22;12242;50.952;4.678;2022-12-18T10:54:58;1.90;99.90
24035;DHT22;12242;50.952;4.678;2022-12-18T11:00:27;2.10;99.90
24035;DHT22;12242;50.952;4.678;2022-12-18T11:02:56;2.20;99.90
24035;DHT22;12242;50.952;4.678;2022-12-18T11:05:32;2.20;99.90
24035;DHT22;12242;50.952;4.678;2022-12-18T11:08:03;2.20;99.90
24035;DHT22;12242;50.952;4.678;2022-12-18T11:10:38;2.20;99.90
24035;DHT22;12242;50.952;4.678;2022-12-18T11:13:17;2.20;99.90
24035;DHT22;12242;50.952;4.678;2022-12-18T11:15:46;2.10;99.90
24035;DHT22;12242;50.952;4.678;2022-12-18T11:18:25;1.80;99.90
24035;DHT22;12242;50.952;4.678;2022-12-18T11:21:14;1.70;99.90
24035;DHT22;12242;50.952;4.678;2022-12-18T11:24:00;1.90;99.90
24035;DHT22;12242;50.952;4.678;2022-12-18T11:26:38;2.00;99.90
24035;DHT22;12242;50.952;4.678;2022-12-18T11:29:14;1.60;99.90
24035;DHT22;12242;50.952;4.678;2022-12-18T11:31:46;1.70;99.90
24035;DHT22;12242;50.952;4.678;2022-12-18T11:34:30;2.10;99.90
24035;DHT22;12242;50.952;4.678;2022-12-18T11:37:04;2.60;99.90
24035;DHT22;12242;50.952;4.678;2022-12-18T11:39:46;2.80;99.90
24035;DHT22;12242;50.952;4.678;2022-12-18T11:42:41;2.70;99.90
24035;DHT22;12242;50.952;4.678;2022-12-18T11:45:26;2.60;99.90
24035;DHT22;12242;50.952;4.678;2022-12-18T11:48:13;2.70;99.90
24035;DHT22;12242;50.952;4.678;2022-12-18T11:50:52;2.80;99.90
24035;DHT22;12242;50.952;4.678;2022-12-18T11:53:23;2.80;99.90
24035;DHT22;12242;50.952;4.678;2022-12-18T11:58:55;2.60;99.90
24035;DHT22;12242;50.952;4.678;2022-12-18T12:01:48;2.70;99.90
24035;DHT22;12242;50.952;4.678;2022-12-18T12:21:14;3.20;99.90
24035;DHT22;12242;50.952;4.678;2022-12-18T12:26:34;3.40;99.90
24035;DHT22;12242;50.952;4.678;2022-12-18T12:34:26;3.60;99.90
24035;DHT22;12242;50.952;4.678;2022-12-18T12:39:51;3.70;99.90
24035;DHT22;12242;50.952;4.678;2022-12-18T12:42:39;3.70;99.90
24035;DHT22;12242;50.952;4.678;2022-12-18T12:45:34;3.70;99.90
24035;DHT22;12242;50.952;4.678;2022-12-18T12:48:06;3.30;99.90
24035;DHT22;12242;50.952;4.678;2022-12-18T12:50:37;3.40;99.90
24035;DHT22;12242;50.952;4.678;2022-12-18T12:53:07;3.40;99.90
24035;DHT22;12242;50.952;4.678;2022-12-18T12:55:38;3.10;99.90
24035;DHT22;12242;50.952;4.678;2022-12-18T13:04:23;3.60;99.90
24035;DHT22;12242;50.952;4.678;2022-12-18T13:07:00;3.90;99.90
24035;DHT22;12242;50.952;4.678;2022-12-18T13:09:34;3.90;99.90
24035;DHT22;12242;50.952;4.678;2022-12-18T13:12:07;3.50;99.90
24035;DHT22;12242;50.952;4.678;2022-12-18T13:15:21;3.40;99.90
24035;DHT22;12242;50.952;4.678;2022-12-18T13:18:24;3.20;99.90
24035;DHT22;12242;50.952;4.678;2022-12-18T13:23:46;3.00;99.90
24035;DHT22;12242;50.952;4.678;2022-12-18T13:28:56;2.60;99.90
24035;DHT22;12242;50.952;4.678;2022-12-18T13:39:42;2.70;99.90
24035;DHT22;12242;50.952;4.678;2022-12-18T13:44:58;2.90;99.90
24035;DHT22;12242;50.952;4.678;2022-12-18T13:47:33;3.20;99.90
24035;DHT22;12242;50.952;4.678;2022-12-18T13:50:22;3.30;99.90
24035;DHT22;12242;50.952;4.678;2022-12-18T13:52:51;3.60;99.90
24035;DHT22;12242;50.952;4.678;2022-12-18T13:55:22;3.70;99.90
24035;DHT22;12242;50.952;4.678;2022-12-18T13:58:03;3.80;99.90
24035;DHT22;12242;50.952;4.678;2022-12-18T14:00:31;3.90;99.90
24035;DHT22;12242;50.952;4.678;2022-12-18T14:02:59;3.90;99.90
24035;DHT22;12242;50.952;4.678;2022-12-18T14:05:38;4.00;99.90
24035;DHT22;12242;50.952;4.678;2022-12-18T14:08:12;4.10;99.90
24035;DHT22;12242;50.952;4.678;2022-12-18T14:10:46;4.20;99.90
24035;DHT22;12242;50.952;4.678;2022-12-18T14:13:36;4.30;99.90
24035;DHT22;12242;50.952;4.678;2022-12-18T14:16:07;4.40;99.90
24035;DHT22;12242;50.952;4.678;2022-12-18T14:18:54;4.60;99.90
24035;DHT22;12242;50.952;4.678;2022-12-18T14:21:30;4.60;99.90
24035;DHT22;12242;50.952;4.678;2022-12-18T14:24:06;4.50;99.90
24035;DHT22;12242;50.952;4.678;2022-12-18T14:26:41;4.50;99.90
24035;DHT22;12242;50.952;4.678;2022-12-18T14:29:20;4.50;99.90
24035;DHT22;12242;50.952;4.678;2022-12-18T14:32:05;4.40;99.90
24035;DHT22;12242;50.952;4.678;2022-12-18T14:34:38;4.20;99.90
24035;DHT22;12242;50.952;4.678;2022-12-18T14:37:10;4.10;99.90
24035;DHT22;12242;50.952;4.678;2022-12-18T14:39:38;4.00;99.90
24035;DHT22;12242;50.952;4.678;2022-12-18T14:42:11;3.30;99.90
24035;DHT22;12242;50.952;4.678;2022-12-18T14:44:38;3.30;99.90
24035;DHT22;12242;50.952;4.678;2022-12-18T14:47:25;3.20;99.90
24035;DHT22;12242;50.952;4.678;2022-12-18T14:50:00;3.00;99.90
24035;DHT22;12242;50.952;4.678;2022-12-18T14:52:31;3.00;99.90
24035;DHT22;12242;50.952;4.678;2022-12-18T14:54:58;2.90;99.90
24035;DHT22;12242;50.952;4.678;2022-12-18T14:57:36;3.00;99.90
24035;DHT22;12242;50.952;4.678;2022-12-18T15:00:21;2.90;99.90
24035;DHT22;12242;50.952;4.678;2022-12-18T15:02:54;2.90;99.90
24035;DHT22;12242;50.952;4.678;2022-12-18T15:05:30;2.80;99.90
24035;DHT22;12242;50.952;4.678;2022-12-18T15:07:59;2.90;99.90
24035;DHT22;12242;50.952;4.678;2022-12-18T15:10:31;2.70;99.90
24035;DHT22;12242;50.952;4.678;2022-12-18T15:18:10;2.80;99.90
24035;DHT22;12242;50.952;4.678;2022-12-18T15:26:24;3.20;99.90
24035;DHT22;12242;50.952;4.678;2022-12-18T15:28:52;3.30;99.90
24035;DHT22;12242;50.952;4.678;2022-12-18T15:31:34;3.20;99.90
24035;DHT22;12242;50.952;4.678;2022-12-18T15:36:35;2.80;99.90
24035;DHT22;12242;50.952;4.678;2022-12-18T15:39:05;2.70;99.90
24035;DHT22;12242;50.952;4.678;2022-12-18T15:41:34;2.80;99.90
24035;DHT22;12242;50.952;4.678;2022-12-18T15:44:15;2.90;99.90
24035;DHT22;12242;50.952;4.678;2022-12-18T15:46:50;3.00;99.90
24035;DHT22;12242;50.952;4.678;2022-12-18T15:49:17;2.90;99.90
24035;DHT22;12242;50.952;4.678;2022-12-18T15:51:45;2.80;99.90
24035;DHT22;12242;50.952;4.678;2022-12-18T15:54:14;2.70;99.90
24035;DHT22;12242;50.952;4.678;2022-12-18T15:57:02;2.50;99.90
24035;DHT22;12242;50.952;4.678;2022-12-18T15:59:51;2.50;99.90
24035;DHT22;12242;50.952;4.678;2022-12-18T16:02:25;2.60;99.90
24035;DHT22;12242;50.952;4.678;2022-12-18T16:04:53;2.70;99.90
24035;DHT22;12242;50.952;4.678;2022-12-18T16:07:23;2.80;99.90
24035;DHT22;12242;50.952;4.678;2022-12-18T16:09:56;2.80;99.90
24035;DHT22;12242;50.952;4.678;2022-12-18T16:12:26;2.80;99.90
24035;DHT22;12242;50.952;4.678;2022-12-18T16:14:55;2.80;99.90
24035;DHT22;12242;50.952;4.678;2022-12-18T16:17:26;2.80;99.90
24035;DHT22;12242;50.952;4.678;2022-12-18T16:19:55;2.70;99.90
24035;DHT22;12242;50.952;4.678;2022-12-18T16:22:29;2.80;99.90
24035;DHT22;12242;50.952;4.678;2022-12-18T16:24:59;2.60;99.90
24035;DHT22;12242;50.952;4.678;2022-12-18T16:27:26;2.60;99.90
24035;DHT22;12242;50.952;4.678;2022-12-18T16:29:56;2.50;99.90
24035;DHT22;12242;50.952;4.678;2022-12-18T16:32:23;2.40;99.90
24035;DHT22;12242;50.952;4.678;2022-12-18T16:34:51;2.30;99.90
24035;DHT22;12242;50.952;4.678;2022-12-18T16:37:18;2.20;99.90
24035;DHT22;12242;50.952;4.678;2022-12-18T16:39:45;2.20;99.90
24035;DHT22;12242;50.952;4.678;2022-12-18T16:42:15;2.30;99.90
24035;DHT22;12242;50.952;4.678;2022-12-18T16:44:49;2.20;99.90
24035;DHT22;12242;50.952;4.678;2022-12-18T16:47:17;2.10;99.90
24035;DHT22;12242;50.952;4.678;2022-12-18T16:49:51;2.10;99.90
24035;DHT22;12242;50.952;4.678;2022-12-18T16:52:19;2.10;99.90
24035;DHT22;12242;50.952;4.678;2022-12-18T16:54:51;2.10;99.90
24035;DHT22;12242;50.952;4.678;2022-12-18T16:57:20;2.20;99.90
24035;DHT22;12242;50.952;4.678;2022-12-18T16:59:51;2.20;99.90
24035;DHT22;12242;50.952;4.678;2022-12-18T17:02:27;2.30;99.90
24035;DHT22;12242;50.952;4.678;2022-12-18T17:04:56;2.40;99.90
24035;DHT22;12242;50.952;4.678;2022-12-18T17:07:25;2.50;99.90
24035;DHT22;12242;50.952;4.678;2022-12-18T17:09:52;2.50;99.90
24035;DHT22;12242;50.952;4.678;2022-12-18T17:12:20;2.50;99.90
24035;DHT22;12242;50.952;4.678;2022-12-18T17:14:57;2.50;99.90
24035;DHT22;12242;50.952;4.678;2022-12-18T17:17:26;2.50;99.90
24035;DHT22;12242;50.952;4.678;2022-12-18T17:19:54;2.40;99.90
24035;DHT22;12242;50.952;4.678;2022-12-18T17:22:24;2.40;99.90
24035;DHT22;12242;50.952;4.678;2022-12-18T17:24:51;2.50;99.90
24035;DHT22;12242;50.952;4.678;2022-12-18T17:27:19;2.40;99.90
24035;DHT22;12242;50.952;4.678;2022-12-18T17:29:46;2.40;99.90
24035;DHT22;12242;50.952;4.678;2022-12-18T17:32:16;2.40;99.90
24035;DHT22;12242;50.952;4.678;2022-12-18T17:34:44;2.40;99.90
24035;DHT22;12242;50.952;4.678;2022-12-18T17:37:12;2.50;99.90
24035;DHT22;12242;50.952;4.678;2022-12-18T17:39:39;2.50;99.90
24035;DHT22;12242;50.952;4.678;2022-12-18T17:42:09;2.50;99.90
24035;DHT22;12242;50.952;4.678;2022-12-18T17:44:41;2.50;99.90
24035;DHT22;12242;50.952;4.678;2022-12-18T17:47:08;2.50;99.90
24035;DHT22;12242;50.952;4.678;2022-12-18T17:49:38;2.50;99.90
24035;DHT22;12242;50.952;4.678;2022-12-18T17:52:05;2.50;99.90
24035;DHT22;12242;50.952;4.678;2022-12-18T17:54:37;2.50;99.90
24035;DHT22;12242;50.952;4.678;2022-12-18T17:57:07;2.40;99.90
24035;DHT22;12242;50.952;4.678;2022-12-18T17:59:34;2.30;99.90
24035;DHT22;12242;50.952;4.678;2022-12-18T18:02:04;2.40;99.90
24035;DHT22;12242;50.952;4.678;2022-12-18T18:04:37;2.20;99.90
24035;DHT22;12242;50.952;4.678;2022-12-18T18:07:04;2.20;99.90